createdAt,value
2019-01-13T00:00:56.907Z,13.55
2019-01-13T00:02:01.909Z,15.90
2019-01-13T00:03:07.013Z,14.03
2019-01-13T00:04:12.238Z,14.87
2019-01-13T00:05:17.179Z,15.72
2019-01-13T00:06:22.159Z,16.02
2019-01-13T00:07:29.328Z,15.05
2019-01-13T00:08:34.053Z,12.63
2019-01-13T00:09:40.304Z,14.00
2019-01-13T00:10:45.337Z,12.78
2019-01-13T00:11:50.168Z,10.85
2019-01-13T00:12:55.232Z,11.53
2019-01-13T00:14:00.097Z,11.90
2019-01-13T00:15:05.531Z,15.25
2019-01-13T00:16:10.682Z,13.88
2019-01-13T00:17:15.775Z,15.13
2019-01-13T00:18:21.264Z,17.52
2019-01-13T00:19:26.286Z,17.37
2019-01-13T00:20:31.775Z,16.17
2019-01-13T00:21:36.844Z,16.45
2019-01-13T00:22:41.806Z,17.35
2019-01-13T00:23:47.017Z,16.55
2019-01-13T00:24:51.983Z,14.78
2019-01-13T00:25:56.957Z,13.62
2019-01-13T00:27:01.881Z,17.67
2019-01-13T00:28:06.870Z,14.43
2019-01-13T00:29:11.776Z,14.78
2019-01-13T00:30:19.413Z,16.57
2019-01-13T00:31:23.943Z,17.62
2019-01-13T00:32:28.992Z,16.57
2019-01-13T00:33:33.757Z,17.98
2019-01-13T00:34:38.524Z,18.32
2019-01-13T00:35:44.994Z,19.32
2019-01-13T00:36:49.805Z,17.92
2019-01-13T00:37:54.767Z,18.62
2019-01-13T00:38:59.521Z,16.52
2019-01-13T00:40:05.117Z,14.78
2019-01-13T00:41:10.092Z,14.55
2019-01-13T00:42:15.049Z,11.00
2019-01-13T00:43:19.983Z,12.35
2019-01-13T00:44:25.088Z,12.05
2019-01-13T00:45:30.137Z,11.55
2019-01-13T00:46:35.057Z,11.90
2019-01-13T00:47:40.032Z,11.15
2019-01-13T00:48:45.131Z,12.43
2019-01-13T00:49:50.025Z,11.10
2019-01-13T00:50:54.835Z,11.78
2019-01-13T00:51:59.673Z,9.03
2019-01-13T00:53:04.856Z,11.75
2019-01-13T00:54:09.804Z,12.07
2019-01-13T00:55:15.207Z,12.63
2019-01-13T00:56:20.323Z,13.30
2019-01-13T00:57:25.416Z,16.27
2019-01-13T00:58:30.700Z,20.27
2019-01-13T00:59:35.449Z,17.95
2019-01-13T01:00:40.605Z,15.20
2019-01-13T01:01:45.480Z,14.90
2019-01-13T01:02:50.634Z,13.72
2019-01-13T01:03:55.872Z,14.15
2019-01-13T01:05:00.862Z,15.15
2019-01-13T01:06:06.208Z,15.30
2019-01-13T01:07:11.514Z,17.32
2019-01-13T01:08:16.983Z,16.87
2019-01-13T01:09:21.776Z,17.70
2019-01-13T01:10:26.706Z,15.13
2019-01-13T01:11:32.163Z,18.12
2019-01-13T01:12:37.039Z,17.00
2019-01-13T01:13:42.321Z,19.15
2019-01-13T01:14:47.215Z,18.42
2019-01-13T01:15:52.235Z,24.65
2019-01-13T01:16:57.180Z,19.98
2019-01-13T01:18:04.132Z,22.62
2019-01-13T01:19:08.880Z,19.87
2019-01-13T01:20:15.392Z,21.15
2019-01-13T01:21:20.469Z,23.55
2019-01-13T01:22:25.462Z,21.77
2019-01-13T01:23:30.678Z,21.57
2019-01-13T01:24:35.576Z,18.57
2019-01-13T01:25:40.411Z,23.60
2019-01-13T01:26:45.291Z,18.85
2019-01-13T01:27:50.155Z,22.07
2019-01-13T01:28:55.224Z,20.90
2019-01-13T01:30:00.237Z,22.55
2019-01-13T01:31:05.653Z,24.37
2019-01-13T01:32:10.507Z,21.52
2019-01-13T01:33:15.312Z,23.50
2019-01-13T01:34:20.301Z,25.12
2019-01-13T01:35:25.177Z,20.72
2019-01-13T01:36:30.147Z,17.95
2019-01-13T01:37:35.193Z,20.02
2019-01-13T01:38:40.048Z,18.95
2019-01-13T01:39:45.123Z,18.50
2019-01-13T01:40:50.290Z,20.97
2019-01-13T01:41:55.129Z,20.77
2019-01-13T01:43:00.009Z,21.50
2019-01-13T01:44:05.303Z,18.80
2019-01-13T01:45:13.537Z,20.10
2019-01-13T01:46:18.400Z,20.80
2019-01-13T01:47:23.339Z,20.45
2019-01-13T01:48:28.344Z,20.50
2019-01-13T01:49:33.284Z,24.50
2019-01-13T01:50:38.104Z,20.17
2019-01-13T01:51:45.041Z,17.92
2019-01-13T01:52:49.463Z,19.92
2019-01-13T01:53:54.325Z,18.10
2019-01-13T01:54:59.263Z,20.85
2019-01-13T01:56:04.304Z,22.10
2019-01-13T01:57:09.239Z,25.82
2019-01-13T01:58:14.220Z,25.45
2019-01-13T01:59:19.171Z,29.55
2019-01-13T02:00:25.345Z,22.30
2019-01-13T02:01:33.251Z,24.60
2019-01-13T02:02:38.194Z,22.45
2019-01-13T02:03:43.149Z,23.32
2019-01-13T02:04:48.064Z,23.45
2019-01-13T02:05:53.156Z,27.20
2019-01-13T02:06:58.350Z,28.90
2019-01-13T02:08:03.252Z,32.30
2019-01-13T02:09:09.327Z,30.40
2019-01-13T02:10:17.263Z,25.82
2019-01-13T02:11:22.068Z,23.95
2019-01-13T02:12:27.060Z,22.50
2019-01-13T02:13:32.000Z,22.45
2019-01-13T02:14:36.893Z,19.75
2019-01-13T02:15:41.692Z,19.67
2019-01-13T02:16:46.534Z,22.02
2019-01-13T02:17:51.513Z,17.95
2019-01-13T02:18:56.424Z,17.32
2019-01-13T02:20:05.917Z,19.00
2019-01-13T02:21:10.812Z,16.60
2019-01-13T02:22:15.616Z,10.53
2019-01-13T02:23:20.429Z,13.50
2019-01-13T02:24:25.436Z,10.43
2019-01-13T02:25:31.288Z,10.13
2019-01-13T02:26:36.109Z,8.88
2019-01-13T02:27:41.149Z,11.20
2019-01-13T02:28:46.227Z,8.28
2019-01-13T02:29:51.158Z,8.70
2019-01-13T02:30:56.083Z,9.20
2019-01-13T02:32:01.083Z,7.33
2019-01-13T02:33:06.237Z,9.18
2019-01-13T02:34:11.209Z,7.37
2019-01-13T02:35:16.250Z,9.18
2019-01-13T02:36:21.233Z,7.70
2019-01-13T02:37:25.934Z,10.23
2019-01-13T02:38:30.905Z,9.90
2019-01-13T02:39:36.063Z,10.25
2019-01-13T02:40:41.012Z,14.20
2019-01-13T02:41:45.846Z,11.97
2019-01-13T02:42:51.120Z,13.32
2019-01-13T02:43:56.352Z,13.40
2019-01-13T02:45:01.205Z,14.23
2019-01-13T02:46:06.144Z,12.78
2019-01-13T02:47:11.097Z,13.13
2019-01-13T02:48:16.191Z,12.23
2019-01-13T02:49:21.072Z,12.53
2019-01-13T02:50:25.864Z,14.28
2019-01-13T02:51:30.948Z,12.45
2019-01-13T02:52:36.017Z,14.75
2019-01-13T02:53:40.719Z,14.25
2019-01-13T02:54:45.672Z,13.25
2019-01-13T02:55:50.510Z,13.00
2019-01-13T02:56:55.498Z,10.40
2019-01-13T02:58:00.240Z,7.67
2019-01-13T02:59:06.352Z,12.05
2019-01-13T03:00:14.888Z,9.48
2019-01-13T03:01:19.616Z,9.68
2019-01-13T03:02:24.345Z,7.33
2019-01-13T03:03:29.116Z,8.53
2019-01-13T03:04:33.988Z,8.90
2019-01-13T03:05:38.742Z,7.55
2019-01-13T03:06:43.529Z,7.62
2019-01-13T03:07:48.573Z,7.87
2019-01-13T03:08:54.820Z,6.65
2019-01-13T03:09:59.720Z,6.65
2019-01-13T03:11:04.680Z,7.65
2019-01-13T03:12:09.614Z,6.28
2019-01-13T03:13:14.348Z,7.42
2019-01-13T03:14:19.253Z,6.70
2019-01-13T03:15:25.667Z,6.47
2019-01-13T03:16:30.521Z,9.78
2019-01-13T03:17:35.405Z,6.47
2019-01-13T03:18:40.856Z,7.72
2019-01-13T03:19:45.737Z,9.48
2019-01-13T03:20:50.965Z,9.03
2019-01-13T03:21:55.704Z,7.53
2019-01-13T03:23:00.463Z,7.28
2019-01-13T03:24:05.830Z,5.10
2019-01-13T03:25:12.772Z,5.67
2019-01-13T03:26:17.660Z,8.93
2019-01-13T03:27:22.786Z,6.75
2019-01-13T03:28:27.513Z,7.58
2019-01-13T03:29:32.282Z,8.90
2019-01-13T03:30:37.281Z,6.10
2019-01-13T03:31:42.199Z,5.90
2019-01-13T03:32:46.971Z,4.95
2019-01-13T03:33:51.800Z,4.28
2019-01-13T03:34:56.806Z,4.60
2019-01-13T03:36:01.736Z,6.72
2019-01-13T03:37:06.500Z,3.52
2019-01-13T03:38:11.453Z,5.60
2019-01-13T03:39:16.444Z,6.83
2019-01-13T03:40:25.800Z,5.45
2019-01-13T03:41:30.700Z,4.83
2019-01-13T03:42:35.563Z,4.25
2019-01-13T03:43:40.305Z,4.20
2019-01-13T03:44:45.103Z,4.67
2019-01-13T03:45:50.065Z,5.08
2019-01-13T03:46:54.968Z,4.75
2019-01-13T03:47:59.703Z,4.72
2019-01-13T03:49:04.476Z,5.67
2019-01-13T03:50:11.986Z,5.45
2019-01-13T03:51:16.929Z,6.00
2019-01-13T03:52:21.672Z,7.95
2019-01-13T03:53:26.516Z,5.83
2019-01-13T03:54:31.372Z,6.35
2019-01-13T03:55:36.284Z,5.30
2019-01-13T03:56:41.226Z,6.10
2019-01-13T03:57:46.277Z,6.17
2019-01-13T03:58:51.025Z,6.75
2019-01-13T03:59:55.905Z,5.65
2019-01-13T04:01:00.760Z,6.40
2019-01-13T04:02:05.783Z,6.22
2019-01-13T04:03:10.557Z,8.58
2019-01-13T04:04:15.392Z,6.55
2019-01-13T04:05:20.771Z,6.30
2019-01-13T04:06:25.591Z,8.05
2019-01-13T04:07:30.332Z,6.75
2019-01-13T04:08:35.152Z,7.45
2019-01-13T04:09:40.186Z,7.03
2019-01-13T04:10:45.105Z,6.40
2019-01-13T04:11:49.836Z,5.67
2019-01-13T04:12:54.713Z,5.75
2019-01-13T04:13:59.539Z,4.45
2019-01-13T04:15:05.502Z,5.28
2019-01-13T04:16:10.364Z,5.60
2019-01-13T04:17:15.236Z,6.58
2019-01-13T04:18:20.080Z,5.33
2019-01-13T04:19:24.833Z,7.95
2019-01-13T04:20:29.839Z,8.10
2019-01-13T04:21:34.681Z,8.93
2019-01-13T04:22:39.660Z,8.88
2019-01-13T04:23:44.397Z,8.50
2019-01-13T04:24:49.159Z,10.00
2019-01-13T04:25:54.196Z,10.28
2019-01-13T04:26:58.949Z,10.53
2019-01-13T04:28:03.833Z,7.87
2019-01-13T04:29:08.761Z,8.65
2019-01-13T04:30:14.020Z,8.88
2019-01-13T04:31:26.393Z,8.33
2019-01-13T04:32:25.288Z,7.58
2019-01-13T04:33:30.148Z,5.42
2019-01-13T04:34:34.868Z,5.42
2019-01-13T04:35:39.633Z,8.58
2019-01-13T04:36:44.376Z,5.97
2019-01-13T04:37:49.276Z,4.97
2019-01-13T04:38:54.039Z,4.85
2019-01-13T04:40:01.910Z,5.35
2019-01-13T04:41:06.751Z,4.20
2019-01-13T04:42:11.526Z,4.75
2019-01-13T04:43:16.280Z,4.62
2019-01-13T04:44:21.241Z,3.25
2019-01-13T04:45:26.117Z,3.52
2019-01-13T04:46:30.890Z,3.17
2019-01-13T04:47:35.830Z,3.70
2019-01-13T04:48:40.647Z,2.22
2019-01-13T04:49:45.663Z,2.90
2019-01-13T04:50:50.511Z,3.02
2019-01-13T04:51:55.505Z,4.00
2019-01-13T04:53:00.375Z,3.83
2019-01-13T04:54:05.224Z,4.15
2019-01-13T04:55:10.288Z,2.67
2019-01-13T04:56:15.168Z,2.70
2019-01-13T04:57:20.112Z,3.00
2019-01-13T04:58:24.845Z,3.52
2019-01-13T04:59:29.595Z,3.25
2019-01-13T05:00:34.477Z,3.00
2019-01-13T05:01:39.313Z,2.98
2019-01-13T05:02:44.264Z,2.33
2019-01-13T05:03:49.179Z,2.65
2019-01-13T05:04:53.923Z,5.05
2019-01-13T05:05:58.852Z,3.42
2019-01-13T05:07:03.809Z,4.03
2019-01-13T05:08:09.076Z,4.95
2019-01-13T05:09:13.859Z,3.58
2019-01-13T05:10:20.165Z,5.87
2019-01-13T05:11:24.992Z,4.00
2019-01-13T05:12:29.856Z,5.95
2019-01-13T05:13:34.601Z,5.05
2019-01-13T05:14:39.360Z,3.05
2019-01-13T05:15:44.319Z,4.62
2019-01-13T05:16:49.171Z,4.33
2019-01-13T05:17:53.892Z,5.05
2019-01-13T05:18:58.738Z,3.33
2019-01-13T05:20:03.705Z,3.40
2019-01-13T05:21:08.668Z,4.10
2019-01-13T05:22:13.673Z,3.45
2019-01-13T05:23:18.411Z,5.33
2019-01-13T05:24:23.132Z,2.92
2019-01-13T05:25:28.111Z,4.47
2019-01-13T05:26:32.942Z,2.72
2019-01-13T05:27:37.784Z,4.85
2019-01-13T05:28:42.564Z,2.27
2019-01-13T05:29:47.404Z,2.83
2019-01-13T05:30:52.304Z,4.83
2019-01-13T05:31:57.139Z,2.98
2019-01-13T05:33:01.864Z,4.33
2019-01-13T05:34:06.625Z,3.95
2019-01-13T05:35:11.591Z,4.03
2019-01-13T05:36:16.478Z,4.30
2019-01-13T05:37:21.236Z,2.70
2019-01-13T05:38:25.980Z,4.28
2019-01-13T05:39:30.804Z,4.22
2019-01-13T05:40:35.929Z,4.15
2019-01-13T05:41:40.900Z,4.47
2019-01-13T05:42:45.756Z,5.70
2019-01-13T05:43:50.712Z,6.45
2019-01-13T05:44:55.474Z,5.08
2019-01-13T05:46:00.305Z,4.40
2019-01-13T05:47:05.227Z,2.70
2019-01-13T05:48:10.133Z,4.17
2019-01-13T05:49:14.955Z,3.25
2019-01-13T05:50:23.060Z,4.05
2019-01-13T05:51:28.026Z,5.00
2019-01-13T05:52:32.791Z,4.92
2019-01-13T05:53:38.902Z,4.47
2019-01-13T05:54:43.753Z,5.22
2019-01-13T05:55:48.656Z,5.22
2019-01-13T05:56:53.805Z,3.47
2019-01-13T05:57:58.749Z,3.20
2019-01-13T05:59:03.632Z,2.90
2019-01-13T06:00:11.932Z,3.17
2019-01-13T06:01:16.788Z,6.95
2019-01-13T06:02:21.712Z,5.08
2019-01-13T06:03:26.607Z,4.47
2019-01-13T06:04:31.388Z,4.33
2019-01-13T06:05:36.216Z,4.22
2019-01-13T06:06:41.136Z,3.62
2019-01-13T06:07:46.107Z,3.58
2019-01-13T06:08:50.841Z,4.47
2019-01-13T06:09:56.829Z,4.25
2019-01-13T06:11:01.712Z,4.12
2019-01-13T06:12:06.468Z,4.95
2019-01-13T06:13:11.377Z,5.17
2019-01-13T06:14:16.313Z,7.10
2019-01-13T06:15:23.201Z,5.40
2019-01-13T06:16:28.191Z,8.03
2019-01-13T06:17:33.064Z,7.92
2019-01-13T06:18:37.817Z,7.15
2019-01-13T06:19:42.555Z,8.05
2019-01-13T06:20:47.473Z,7.15
2019-01-13T06:21:52.307Z,7.20
2019-01-13T06:22:57.068Z,7.62
2019-01-13T06:24:01.783Z,6.55
2019-01-13T06:25:07.083Z,6.78
2019-01-13T06:26:11.949Z,7.08
2019-01-13T06:27:16.856Z,6.58
2019-01-13T06:28:21.623Z,7.00
2019-01-13T06:29:26.587Z,7.42
2019-01-13T06:30:31.340Z,6.15
2019-01-13T06:31:36.468Z,6.60
2019-01-13T06:32:41.219Z,7.83
2019-01-13T06:33:45.974Z,7.35
2019-01-13T06:34:50.869Z,6.65
2019-01-13T06:35:55.621Z,6.78
2019-01-13T06:37:00.504Z,6.33
2019-01-13T06:38:06.335Z,7.80
2019-01-13T06:39:11.336Z,5.83
2019-01-13T06:40:19.339Z,6.37
2019-01-13T06:41:24.116Z,7.45
2019-01-13T06:42:28.851Z,7.03
2019-01-13T06:43:33.676Z,7.62
2019-01-13T06:44:38.577Z,6.53
2019-01-13T06:45:43.322Z,8.60
2019-01-13T06:46:48.094Z,10.20
2019-01-13T06:47:52.906Z,8.25
2019-01-13T06:48:59.201Z,6.75
2019-01-13T06:50:04.757Z,6.78
2019-01-13T06:51:09.676Z,9.05
2019-01-13T06:52:14.411Z,7.08
2019-01-13T06:53:19.243Z,7.90
2019-01-13T06:54:24.284Z,7.22
2019-01-13T06:55:29.035Z,7.12
2019-01-13T06:56:35.271Z,8.25
2019-01-13T06:57:40.149Z,8.90
2019-01-13T06:58:44.905Z,7.62
2019-01-13T06:59:50.955Z,7.10
2019-01-13T07:00:56.010Z,9.83
2019-01-13T07:02:03.460Z,8.30
2019-01-13T07:03:07.540Z,7.58
2019-01-13T07:04:12.394Z,6.45
2019-01-13T07:05:17.244Z,6.08
2019-01-13T07:06:22.284Z,8.10
2019-01-13T07:07:27.287Z,8.80
2019-01-13T07:08:32.010Z,7.37
2019-01-13T07:09:36.876Z,7.12
2019-01-13T07:10:41.599Z,7.40
2019-01-13T07:11:46.520Z,7.37
2019-01-13T07:12:51.521Z,7.83
2019-01-13T07:13:56.435Z,7.17
2019-01-13T07:15:03.650Z,8.70
2019-01-13T07:16:08.513Z,7.28
2019-01-13T07:17:13.292Z,8.03
2019-01-13T07:18:18.011Z,7.55
2019-01-13T07:19:22.798Z,7.05
2019-01-13T07:20:27.718Z,7.65
2019-01-13T07:21:32.551Z,7.75
2019-01-13T07:22:40.848Z,9.83
2019-01-13T07:23:46.050Z,9.90
2019-01-13T07:24:50.776Z,12.93
2019-01-13T07:25:55.558Z,20.30
2019-01-13T07:27:00.320Z,19.30
2019-01-13T07:28:05.086Z,15.58
2019-01-13T07:29:09.853Z,11.28
2019-01-13T07:30:22.448Z,8.93
2019-01-13T07:31:27.172Z,8.18
2019-01-13T07:32:31.947Z,9.58
2019-01-13T07:33:36.697Z,9.00
2019-01-13T07:34:41.493Z,7.62
2019-01-13T07:35:46.278Z,7.65
2019-01-13T07:36:51.072Z,10.05
2019-01-13T07:37:55.779Z,8.08
2019-01-13T07:39:00.704Z,12.33
2019-01-13T07:40:08.444Z,12.25
2019-01-13T07:41:13.284Z,7.75
2019-01-13T07:42:18.041Z,7.87
2019-01-13T07:43:22.806Z,7.95
2019-01-13T07:44:27.713Z,9.13
2019-01-13T07:45:32.458Z,8.43
2019-01-13T07:46:37.258Z,8.18
2019-01-13T07:47:42.093Z,8.78
2019-01-13T07:48:46.873Z,9.53
2019-01-13T07:49:51.727Z,9.25
2019-01-13T07:50:56.456Z,9.48
2019-01-13T07:52:01.261Z,8.45
2019-01-13T07:53:06.113Z,7.55
2019-01-13T07:54:10.867Z,8.78
2019-01-13T07:55:17.415Z,9.73
2019-01-13T07:56:22.128Z,7.97
2019-01-13T07:57:26.945Z,8.10
2019-01-13T07:58:31.664Z,7.97
2019-01-13T07:59:36.469Z,8.53
2019-01-13T08:00:41.205Z,7.83
2019-01-13T08:01:46.022Z,8.45
2019-01-13T08:02:50.941Z,8.05
2019-01-13T08:03:55.672Z,8.60
2019-01-13T08:05:00.577Z,10.10
2019-01-13T08:06:05.415Z,11.08
2019-01-13T08:07:10.218Z,10.03
2019-01-13T08:08:15.003Z,8.20
2019-01-13T08:09:19.804Z,8.58
2019-01-13T08:10:24.694Z,8.23
2019-01-13T08:11:29.432Z,9.43
2019-01-13T08:12:34.209Z,8.93
2019-01-13T08:13:38.936Z,7.40
2019-01-13T08:14:43.708Z,8.55
2019-01-13T08:15:48.436Z,12.00
2019-01-13T08:16:53.226Z,21.15
2019-01-13T08:17:58.007Z,20.23
2019-01-13T08:19:02.782Z,19.20
2019-01-13T08:20:10.596Z,18.80
2019-01-13T08:21:15.451Z,17.05
2019-01-13T08:22:20.275Z,10.90
2019-01-13T08:23:24.982Z,12.45
2019-01-13T08:24:29.777Z,11.70
2019-01-13T08:25:34.528Z,11.68
2019-01-13T08:26:39.399Z,13.25
2019-01-13T08:27:44.168Z,15.70
2019-01-13T08:28:48.896Z,12.35
2019-01-13T08:29:53.705Z,20.57
2019-01-13T08:30:58.530Z,14.63
2019-01-13T08:32:03.319Z,18.35
2019-01-13T08:33:08.124Z,13.40
2019-01-13T08:34:12.856Z,28.57
2019-01-13T08:35:17.612Z,20.88
2019-01-13T08:36:22.368Z,37.98
2019-01-13T08:37:27.181Z,17.07
2019-01-13T08:38:31.917Z,11.83
2019-01-13T08:39:36.683Z,11.20
2019-01-13T08:40:41.412Z,19.70
2019-01-13T08:41:46.204Z,27.35
2019-01-13T08:42:51.116Z,10.25
2019-01-13T08:43:55.841Z,9.73
2019-01-13T08:45:00.596Z,22.07
2019-01-13T08:46:05.348Z,12.10
2019-01-13T08:47:10.101Z,11.22
2019-01-13T08:48:14.916Z,8.53
2019-01-13T08:49:19.682Z,7.87
2019-01-13T08:50:26.168Z,13.45
2019-01-13T08:51:31.710Z,9.53
2019-01-13T08:52:36.535Z,7.58
2019-01-13T08:53:41.358Z,19.95
2019-01-13T08:54:46.112Z,21.97
2019-01-13T08:55:50.862Z,16.57
2019-01-13T08:56:55.609Z,12.60
2019-01-13T08:58:00.511Z,9.55
2019-01-13T08:59:05.619Z,18.20
2019-01-13T09:00:19.177Z,13.45
2019-01-13T09:01:24.055Z,6.10
2019-01-13T09:02:32.303Z,11.38
2019-01-13T09:03:35.176Z,7.87
2019-01-13T09:04:40.049Z,9.83
2019-01-13T09:05:44.837Z,9.60
2019-01-13T09:06:49.616Z,6.35
2019-01-13T09:07:54.749Z,4.28
2019-01-13T09:08:59.644Z,7.87
2019-01-13T09:10:05.380Z,24.00
2019-01-13T09:11:10.164Z,27.58
2019-01-13T09:12:14.913Z,5.45
2019-01-13T09:13:19.898Z,6.03
2019-01-13T09:14:24.717Z,13.95
2019-01-13T09:15:29.928Z,10.58
2019-01-13T09:16:34.856Z,5.85
2019-01-13T09:17:39.658Z,9.23
2019-01-13T09:18:44.528Z,13.20
2019-01-13T09:19:49.416Z,10.40
2019-01-13T09:20:54.325Z,17.05
2019-01-13T09:21:59.217Z,29.48
2019-01-13T09:23:04.977Z,24.32
2019-01-13T09:24:09.863Z,22.85
2019-01-13T09:25:14.779Z,26.00
2019-01-13T09:26:19.569Z,17.35
2019-01-13T09:27:24.489Z,22.85
2019-01-13T09:28:29.368Z,16.60
2019-01-13T09:29:34.286Z,13.80
2019-01-13T09:30:39.008Z,12.07
2019-01-13T09:31:43.887Z,9.55
2019-01-13T09:32:48.996Z,9.45
2019-01-13T09:33:53.781Z,8.28
2019-01-13T09:34:58.700Z,10.43
2019-01-13T09:36:03.723Z,12.37
2019-01-13T09:37:08.736Z,8.20
2019-01-13T09:38:13.628Z,6.85
2019-01-13T09:39:18.500Z,6.30
2019-01-13T09:40:25.729Z,9.60
2019-01-13T09:41:30.652Z,9.75
2019-01-13T09:42:35.411Z,9.23
2019-01-13T09:43:40.387Z,23.83
2019-01-13T09:44:45.300Z,11.05
2019-01-13T09:45:50.569Z,10.50
2019-01-13T09:46:55.543Z,8.75
2019-01-13T09:48:00.449Z,8.83
2019-01-13T09:49:05.320Z,8.78
2019-01-13T09:50:12.290Z,8.20
2019-01-13T09:51:17.303Z,8.95
2019-01-13T09:52:22.218Z,7.33
2019-01-13T09:53:27.053Z,8.63
2019-01-13T09:54:31.897Z,11.12
2019-01-13T09:55:36.702Z,8.15
2019-01-13T09:56:41.493Z,7.85
2019-01-13T09:57:46.649Z,7.95
2019-01-13T09:58:51.491Z,6.42
2019-01-13T09:59:56.382Z,9.55
2019-01-13T10:01:01.411Z,9.38
2019-01-13T10:02:06.296Z,8.83
2019-01-13T10:03:11.925Z,10.68
2019-01-13T10:04:16.859Z,9.48
2019-01-13T10:05:21.808Z,9.10
2019-01-13T10:06:26.982Z,8.50
2019-01-13T10:07:32.501Z,10.32
2019-01-13T10:08:37.431Z,10.32
2019-01-13T10:09:42.260Z,14.63
2019-01-13T10:10:47.121Z,9.25
2019-01-13T10:11:51.956Z,10.58
2019-01-13T10:12:56.989Z,10.60
2019-01-13T10:14:01.828Z,11.30
2019-01-13T10:15:09.119Z,14.00
2019-01-13T10:16:14.229Z,13.25
2019-01-13T10:17:19.085Z,8.73
2019-01-13T10:18:23.988Z,17.10
2019-01-13T10:19:28.828Z,23.22
2019-01-13T10:20:36.720Z,17.87
2019-01-13T10:21:41.523Z,13.43
2019-01-13T10:22:46.584Z,12.23
2019-01-13T10:23:51.420Z,15.15
2019-01-13T10:24:56.357Z,10.58
2019-01-13T10:26:01.852Z,14.18
2019-01-13T10:27:07.109Z,19.75
2019-01-13T10:28:12.154Z,15.68
2019-01-13T10:29:17.237Z,25.10
2019-01-13T10:30:25.113Z,9.75
2019-01-13T10:31:30.116Z,9.88
2019-01-13T10:32:35.090Z,16.70
2019-01-13T10:33:40.355Z,43.83
2019-01-13T10:34:45.473Z,27.42
2019-01-13T10:35:50.511Z,23.52
2019-01-13T10:36:55.705Z,13.22
2019-01-13T10:38:00.915Z,11.63
2019-01-13T10:39:08.685Z,31.33
2019-01-13T10:40:16.663Z,22.87
2019-01-13T10:41:21.697Z,16.57
2019-01-13T10:42:26.485Z,22.80
2019-01-13T10:43:31.263Z,23.67
2019-01-13T10:44:36.130Z,12.47
2019-01-13T10:45:41.087Z,9.90
2019-01-13T10:46:45.956Z,17.00
2019-01-13T10:47:50.784Z,11.20
2019-01-13T10:48:55.659Z,8.70
2019-01-13T10:50:00.843Z,8.60
2019-01-13T10:51:05.844Z,8.03
2019-01-13T10:52:10.910Z,9.63
2019-01-13T10:53:15.787Z,8.78
2019-01-13T10:54:20.657Z,10.78
2019-01-13T10:55:25.724Z,7.28
2019-01-13T10:56:30.636Z,9.70
2019-01-13T10:57:35.632Z,10.00
2019-01-13T10:58:40.473Z,7.67
2019-01-13T10:59:45.385Z,7.90
2019-01-13T11:00:50.345Z,7.58
2019-01-13T11:01:55.349Z,8.65
2019-01-13T11:03:02.287Z,8.93
2019-01-13T11:04:06.811Z,8.13
2019-01-13T11:05:11.985Z,7.47
2019-01-13T11:06:16.824Z,7.22
2019-01-13T11:07:21.663Z,7.12
2019-01-13T11:08:26.457Z,9.15
2019-01-13T11:09:31.263Z,8.88
2019-01-13T11:10:36.416Z,8.05
2019-01-13T11:11:41.579Z,8.28
2019-01-13T11:12:46.541Z,8.58
2019-01-13T11:13:51.407Z,7.95
2019-01-13T11:14:56.376Z,8.90
2019-01-13T11:16:01.228Z,8.70
2019-01-13T11:17:06.109Z,10.60
2019-01-13T11:18:11.058Z,7.97
2019-01-13T11:19:15.941Z,7.03
2019-01-13T11:20:23.562Z,7.55
2019-01-13T11:21:28.435Z,7.25
2019-01-13T11:22:33.292Z,7.92
2019-01-13T11:23:38.220Z,9.00
2019-01-13T11:24:43.281Z,9.60
2019-01-13T11:25:48.105Z,8.63
2019-01-13T11:26:53.013Z,9.08
2019-01-13T11:27:57.837Z,7.58
2019-01-13T11:29:02.698Z,8.58
2019-01-13T11:30:09.500Z,9.65
2019-01-13T11:31:14.420Z,9.33
2019-01-13T11:32:19.319Z,6.53
2019-01-13T11:33:24.076Z,7.72
2019-01-13T11:34:28.953Z,7.70
2019-01-13T11:35:33.888Z,9.23
2019-01-13T11:36:38.748Z,7.80
2019-01-13T11:37:43.790Z,7.58
2019-01-13T11:38:48.619Z,11.30
2019-01-13T11:39:53.721Z,12.35
2019-01-13T11:40:58.867Z,10.82
2019-01-13T11:42:03.744Z,10.63
2019-01-13T11:43:08.831Z,7.85
2019-01-13T11:44:13.720Z,9.68
2019-01-13T11:45:19.150Z,9.48
2019-01-13T11:46:24.096Z,9.05
2019-01-13T11:47:28.942Z,8.15
2019-01-13T11:48:33.782Z,9.83
2019-01-13T11:49:38.718Z,10.40
2019-01-13T11:50:43.545Z,8.33
2019-01-13T11:51:48.500Z,10.20
2019-01-13T11:52:53.493Z,9.48
2019-01-13T11:53:58.420Z,8.98
2019-01-13T11:55:03.313Z,9.78
2019-01-13T11:56:08.384Z,9.18
2019-01-13T11:57:13.263Z,10.48
2019-01-13T11:58:18.026Z,10.55
2019-01-13T11:59:22.898Z,10.78
2019-01-13T12:00:36.057Z,8.98
2019-01-13T12:01:40.906Z,11.40
2019-01-13T12:02:45.907Z,10.43
2019-01-13T12:03:50.791Z,10.18
2019-01-13T12:04:55.656Z,10.35
2019-01-13T12:06:00.544Z,9.73
2019-01-13T12:07:05.375Z,9.20
2019-01-13T12:08:10.424Z,10.20
2019-01-13T12:09:15.257Z,9.15
2019-01-13T12:10:20.665Z,9.90
2019-01-13T12:11:25.549Z,9.88
2019-01-13T12:12:30.528Z,8.33
2019-01-13T12:13:35.507Z,8.78
2019-01-13T12:14:40.415Z,8.98
2019-01-13T12:15:45.185Z,8.83
2019-01-13T12:16:50.155Z,7.62
2019-01-13T12:17:54.975Z,7.83
2019-01-13T12:19:00.784Z,11.68
2019-01-13T12:22:48.799Z,10.32
2019-01-13T12:23:53.697Z,8.98
2019-01-13T12:24:58.655Z,10.75
2019-01-13T12:26:03.508Z,10.90
2019-01-13T12:27:08.457Z,8.63
2019-01-13T12:28:13.455Z,8.85
2019-01-13T12:29:18.512Z,9.03
2019-01-13T12:30:25.820Z,9.93
2019-01-13T12:31:32.285Z,10.23
2019-01-13T12:32:37.391Z,9.10
2019-01-13T12:33:42.311Z,10.72
2019-01-13T12:34:47.176Z,9.68
2019-01-13T12:35:52.292Z,9.73
2019-01-13T12:36:57.393Z,9.78
2019-01-13T12:38:02.467Z,10.45
2019-01-13T12:39:11.326Z,10.78
2019-01-13T12:40:17.940Z,7.85
2019-01-13T12:41:22.757Z,11.03
2019-01-13T12:42:27.745Z,11.43
2019-01-13T12:43:32.816Z,10.18
2019-01-13T12:44:37.710Z,10.75
2019-01-13T12:45:42.625Z,9.75
2019-01-13T12:46:47.474Z,11.97
2019-01-13T12:47:52.946Z,11.22
2019-01-13T12:48:57.787Z,13.05
2019-01-13T12:50:02.704Z,13.50
2019-01-13T12:51:08.108Z,11.30
2019-01-13T12:52:13.024Z,8.88
2019-01-13T12:53:17.897Z,9.68
2019-01-13T12:54:22.736Z,10.60
2019-01-13T12:55:27.818Z,12.13
2019-01-13T12:56:32.746Z,13.38
2019-01-13T12:57:37.676Z,16.70
2019-01-13T12:58:42.698Z,10.85
2019-01-13T12:59:47.861Z,11.78
2019-01-13T13:00:52.706Z,8.93
2019-01-13T13:01:57.528Z,9.05
2019-01-13T13:03:02.271Z,8.85
2019-01-13T13:04:07.475Z,11.25
2019-01-13T13:05:12.697Z,9.45
2019-01-13T13:06:17.631Z,10.53
2019-01-13T13:07:22.695Z,8.70
2019-01-13T13:08:27.541Z,9.18
2019-01-13T13:09:32.471Z,9.95
2019-01-13T13:10:42.387Z,10.90
2019-01-13T13:11:47.234Z,9.05
2019-01-13T13:12:52.181Z,9.78
2019-01-13T13:13:56.972Z,9.13
2019-01-13T13:15:01.868Z,11.03
2019-01-13T13:16:06.871Z,8.73
2019-01-13T13:17:11.705Z,10.70
2019-01-13T13:18:16.780Z,9.10
2019-01-13T13:19:21.624Z,8.33
2019-01-13T13:20:26.504Z,9.25
2019-01-13T13:21:31.391Z,9.08
2019-01-13T13:22:36.338Z,9.20
2019-01-13T13:23:41.257Z,8.53
2019-01-13T13:24:46.075Z,8.80
2019-01-13T13:25:50.900Z,8.90
2019-01-13T13:26:55.828Z,9.00
2019-01-13T13:28:00.868Z,10.10
2019-01-13T13:29:06.101Z,9.45
2019-01-13T13:30:14.656Z,10.60
2019-01-13T13:31:19.554Z,8.68
2019-01-13T13:32:24.390Z,7.25
2019-01-13T13:33:29.217Z,8.18
2019-01-13T13:34:34.152Z,8.25
2019-01-13T13:35:40.065Z,12.63
2019-01-13T13:36:45.232Z,9.30
2019-01-13T13:37:50.341Z,7.17
2019-01-13T13:38:55.267Z,9.53
2019-01-13T13:40:00.249Z,8.83
2019-01-13T13:41:05.205Z,10.53
2019-01-13T13:42:10.388Z,9.63
2019-01-13T13:43:15.350Z,9.73
2019-01-13T13:44:20.228Z,8.88
2019-01-13T13:45:25.139Z,6.72
2019-01-13T13:46:30.295Z,9.45
2019-01-13T13:47:35.264Z,8.58
2019-01-13T13:48:40.267Z,7.90
2019-01-13T13:49:44.991Z,9.80
2019-01-13T13:50:50.138Z,9.18
2019-01-13T13:51:55.177Z,9.03
2019-01-13T13:53:00.145Z,10.88
2019-01-13T13:54:05.537Z,12.28
2019-01-13T13:55:11.093Z,12.95
2019-01-13T13:56:15.934Z,8.48
2019-01-13T13:57:20.835Z,9.75
2019-01-13T13:58:25.835Z,9.18
2019-01-13T13:59:30.713Z,7.78
2019-01-13T14:00:37.695Z,9.00
2019-01-13T14:01:42.611Z,9.20
2019-01-13T14:02:47.448Z,8.68
2019-01-13T14:03:52.447Z,6.97
2019-01-13T14:04:57.237Z,8.83
2019-01-13T14:06:02.121Z,9.50
2019-01-13T14:07:07.080Z,7.70
2019-01-13T14:08:12.056Z,10.30
2019-01-13T14:09:16.920Z,9.15
2019-01-13T14:10:24.676Z,7.53
2019-01-13T14:11:29.620Z,7.65
2019-01-13T14:12:34.474Z,8.55
2019-01-13T14:13:39.344Z,8.45
2019-01-13T14:14:44.341Z,7.50
2019-01-13T14:15:49.300Z,7.72
2019-01-13T14:16:54.197Z,8.23
2019-01-13T14:17:58.981Z,7.15
2019-01-13T14:19:03.967Z,7.55